sensor_id;sensor_type;location;lat;lon;timestamp;P1;durP1;ratioP1;P2;durP2;ratioP2
77938;SDS011;67136;47.546;21.630;2023-06-01T00:01:58;10.00;;;4.60;;
77938;SDS011;67136;47.546;21.630;2023-06-01T00:05:01;12.30;;;4.67;;
77938;SDS011;67136;47.546;21.630;2023-06-01T00:08:04;7.22;;;4.12;;
77938;SDS011;67136;47.546;21.630;2023-06-01T00:11:07;9.73;;;4.30;;
77938;SDS011;67136;47.546;21.630;2023-06-01T00:14:09;5.43;;;3.62;;
77938;SDS011;67136;47.546;21.630;2023-06-01T00:17:12;11.65;;;3.97;;
77938;SDS011;67136;47.546;21.630;2023-06-01T00:20:15;6.63;;;3.60;;
77938;SDS011;67136;47.546;21.630;2023-06-01T00:23:17;7.12;;;3.78;;
77938;SDS011;67136;47.546;21.630;2023-06-01T00:26:22;14.35;;;4.07;;
77938;SDS011;67136;47.546;21.630;2023-06-01T00:29:25;10.13;;;4.03;;
77938;SDS011;67136;47.546;21.630;2023-06-01T00:32:30;10.73;;;3.55;;
77938;SDS011;67136;47.546;21.630;2023-06-01T00:35:33;9.40;;;3.97;;
77938;SDS011;67136;47.546;21.630;2023-06-01T00:38:36;9.75;;;4.03;;
77938;SDS011;67136;47.546;21.630;2023-06-01T00:41:39;9.00;;;4.07;;
77938;SDS011;67136;47.546;21.630;2023-06-01T00:44:41;8.80;;;3.87;;
77938;SDS011;67136;47.546;21.630;2023-06-01T00:47:44;6.03;;;3.60;;
77938;SDS011;67136;47.546;21.630;2023-06-01T00:50:46;7.23;;;3.07;;
77938;SDS011;67136;47.546;21.630;2023-06-01T00:53:49;8.35;;;3.45;;
77938;SDS011;67136;47.546;21.630;2023-06-01T00:56:52;7.07;;;3.33;;
77938;SDS011;67136;47.546;21.630;2023-06-01T00:59:59;5.97;;;3.30;;
77938;SDS011;67136;47.546;21.630;2023-06-01T01:03:15;6.40;;;3.12;;
77938;SDS011;67136;47.546;21.630;2023-06-01T01:06:23;6.03;;;3.10;;
77938;SDS011;67136;47.546;21.630;2023-06-01T01:09:32;8.43;;;3.70;;
77938;SDS011;67136;47.546;21.630;2023-06-01T01:16:24;7.45;;;3.25;;
77938;SDS011;67136;47.546;21.630;2023-06-01T01:23:06;8.83;;;3.40;;
77938;SDS011;67136;47.546;21.630;2023-06-01T01:29:37;5.30;;;2.92;;
77938;SDS011;67136;47.546;21.630;2023-06-01T01:32:42;10.25;;;3.12;;
77938;SDS011;67136;47.546;21.630;2023-06-01T01:35:46;5.82;;;3.40;;
77938;SDS011;67136;47.546;21.630;2023-06-01T01:38:51;7.27;;;3.03;;
77938;SDS011;67136;47.546;21.630;2023-06-01T01:41:53;5.55;;;3.00;;
77938;SDS011;67136;47.546;21.630;2023-06-01T01:44:56;5.72;;;2.80;;
77938;SDS011;67136;47.546;21.630;2023-06-01T01:51:35;5.03;;;3.03;;
77938;SDS011;67136;47.546;21.630;2023-06-01T01:54:43;7.80;;;3.03;;
77938;SDS011;67136;47.546;21.630;2023-06-01T01:57:49;7.47;;;3.00;;
77938;SDS011;67136;47.546;21.630;2023-06-01T02:00:53;8.82;;;2.62;;
77938;SDS011;67136;47.546;21.630;2023-06-01T02:03:58;4.78;;;2.85;;
77938;SDS011;67136;47.546;21.630;2023-06-01T02:07:03;8.98;;;3.20;;
77938;SDS011;67136;47.546;21.630;2023-06-01T02:10:06;5.43;;;3.23;;
77938;SDS011;67136;47.546;21.630;2023-06-01T02:13:09;6.07;;;2.90;;
77938;SDS011;67136;47.546;21.630;2023-06-01T02:16:12;4.28;;;2.80;;
77938;SDS011;67136;47.546;21.630;2023-06-01T02:19:14;6.40;;;2.87;;
77938;SDS011;67136;47.546;21.630;2023-06-01T02:22:18;4.93;;;2.87;;
77938;SDS011;67136;47.546;21.630;2023-06-01T02:25:21;9.13;;;2.90;;
77938;SDS011;67136;47.546;21.630;2023-06-01T02:28:26;6.53;;;3.20;;
77938;SDS011;67136;47.546;21.630;2023-06-01T02:31:31;5.95;;;3.00;;
77938;SDS011;67136;47.546;21.630;2023-06-01T02:34:35;6.50;;;3.45;;
77938;SDS011;67136;47.546;21.630;2023-06-01T02:37:39;5.40;;;2.87;;
77938;SDS011;67136;47.546;21.630;2023-06-01T02:40:42;7.00;;;3.50;;
77938;SDS011;67136;47.546;21.630;2023-06-01T02:43:45;6.22;;;2.45;;
77938;SDS011;67136;47.546;21.630;2023-06-01T02:46:47;8.63;;;2.92;;
77938;SDS011;67136;47.546;21.630;2023-06-01T02:49:50;5.82;;;2.97;;
77938;SDS011;67136;47.546;21.630;2023-06-01T02:52:52;7.12;;;2.85;;
77938;SDS011;67136;47.546;21.630;2023-06-01T02:55:55;5.30;;;3.10;;
77938;SDS011;67136;47.546;21.630;2023-06-01T02:59:00;10.48;;;2.58;;
77938;SDS011;67136;47.546;21.630;2023-06-01T03:02:03;6.65;;;2.75;;
77938;SDS011;67136;47.546;21.630;2023-06-01T03:05:06;4.82;;;2.60;;
77938;SDS011;67136;47.546;21.630;2023-06-01T03:08:09;10.18;;;3.00;;
77938;SDS011;67136;47.546;21.630;2023-06-01T03:11:13;9.67;;;2.77;;
77938;SDS011;67136;47.546;21.630;2023-06-01T03:14:15;4.70;;;2.65;;
77938;SDS011;67136;47.546;21.630;2023-06-01T03:17:19;5.72;;;2.80;;
77938;SDS011;67136;47.546;21.630;2023-06-01T03:20:22;6.70;;;2.60;;
77938;SDS011;67136;47.546;21.630;2023-06-01T03:23:24;11.80;;;3.03;;
77938;SDS011;67136;47.546;21.630;2023-06-01T03:26:28;4.53;;;2.50;;
77938;SDS011;67136;47.546;21.630;2023-06-01T03:29:30;7.85;;;2.78;;
77938;SDS011;67136;47.546;21.630;2023-06-01T03:32:33;5.12;;;2.53;;
77938;SDS011;67136;47.546;21.630;2023-06-01T03:35:36;6.35;;;2.95;;
77938;SDS011;67136;47.546;21.630;2023-06-01T03:38:40;7.37;;;2.55;;
77938;SDS011;67136;47.546;21.630;2023-06-01T03:41:44;4.27;;;2.10;;
77938;SDS011;67136;47.546;21.630;2023-06-01T03:44:47;4.12;;;2.15;;
77938;SDS011;67136;47.546;21.630;2023-06-01T03:47:50;5.50;;;2.45;;
77938;SDS011;67136;47.546;21.630;2023-06-01T03:50:53;5.53;;;2.45;;
77938;SDS011;67136;47.546;21.630;2023-06-01T03:53:55;6.00;;;2.28;;
77938;SDS011;67136;47.546;21.630;2023-06-01T03:57:00;5.17;;;2.40;;
77938;SDS011;67136;47.546;21.630;2023-06-01T04:00:03;5.03;;;2.30;;
77938;SDS011;67136;47.546;21.630;2023-06-01T04:03:24;8.27;;;2.60;;
77938;SDS011;67136;47.546;21.630;2023-06-01T04:06:28;5.50;;;1.90;;
77938;SDS011;67136;47.546;21.630;2023-06-01T04:09:31;6.03;;;2.72;;
77938;SDS011;67136;47.546;21.630;2023-06-01T04:12:34;3.90;;;2.43;;
77938;SDS011;67136;47.546;21.630;2023-06-01T04:15:37;4.22;;;2.12;;
77938;SDS011;67136;47.546;21.630;2023-06-01T04:18:40;6.10;;;2.35;;
77938;SDS011;67136;47.546;21.630;2023-06-01T04:21:43;4.87;;;2.17;;
77938;SDS011;67136;47.546;21.630;2023-06-01T04:24:47;6.12;;;2.40;;
77938;SDS011;67136;47.546;21.630;2023-06-01T04:27:50;4.77;;;2.20;;
77938;SDS011;67136;47.546;21.630;2023-06-01T04:30:54;6.80;;;2.60;;
77938;SDS011;67136;47.546;21.630;2023-06-01T04:33:57;7.43;;;2.50;;
77938;SDS011;67136;47.546;21.630;2023-06-01T04:37:03;5.37;;;2.20;;
77938;SDS011;67136;47.546;21.630;2023-06-01T04:40:08;3.72;;;2.20;;
77938;SDS011;67136;47.546;21.630;2023-06-01T04:43:12;8.73;;;2.40;;
77938;SDS011;67136;47.546;21.630;2023-06-01T04:46:16;6.45;;;2.08;;
77938;SDS011;67136;47.546;21.630;2023-06-01T04:49:19;4.95;;;2.30;;
77938;SDS011;67136;47.546;21.630;2023-06-01T04:52:23;4.43;;;2.12;;
77938;SDS011;67136;47.546;21.630;2023-06-01T04:55:26;8.88;;;2.70;;
77938;SDS011;67136;47.546;21.630;2023-06-01T04:58:32;5.70;;;1.90;;
77938;SDS011;67136;47.546;21.630;2023-06-01T05:01:35;4.95;;;2.03;;
77938;SDS011;67136;47.546;21.630;2023-06-01T05:04:39;12.40;;;2.25;;
77938;SDS011;67136;47.546;21.630;2023-06-01T05:07:42;7.25;;;2.53;;
77938;SDS011;67136;47.546;21.630;2023-06-01T05:10:45;6.57;;;2.25;;
77938;SDS011;67136;47.546;21.630;2023-06-01T05:13:48;7.33;;;2.30;;
77938;SDS011;67136;47.546;21.630;2023-06-01T05:16:55;6.55;;;2.65;;
77938;SDS011;67136;47.546;21.630;2023-06-01T05:19:58;5.45;;;2.10;;
77938;SDS011;67136;47.546;21.630;2023-06-01T05:23:01;7.12;;;2.35;;
77938;SDS011;67136;47.546;21.630;2023-06-01T05:26:04;6.57;;;2.60;;
77938;SDS011;67136;47.546;21.630;2023-06-01T05:29:08;6.83;;;2.80;;
77938;SDS011;67136;47.546;21.630;2023-06-01T05:32:11;4.00;;;2.53;;
77938;SDS011;67136;47.546;21.630;2023-06-01T05:35:13;9.68;;;2.78;;
77938;SDS011;67136;47.546;21.630;2023-06-01T05:38:16;9.50;;;2.83;;
77938;SDS011;67136;47.546;21.630;2023-06-01T05:41:19;8.15;;;2.47;;
77938;SDS011;67136;47.546;21.630;2023-06-01T05:44:22;6.83;;;2.60;;
77938;SDS011;67136;47.546;21.630;2023-06-01T05:47:28;4.93;;;2.72;;
77938;SDS011;67136;47.546;21.630;2023-06-01T05:50:31;6.32;;;2.60;;
77938;SDS011;67136;47.546;21.630;2023-06-01T05:53:34;8.60;;;3.00;;
77938;SDS011;67136;47.546;21.630;2023-06-01T05:56:37;6.25;;;2.65;;
77938;SDS011;67136;47.546;21.630;2023-06-01T05:59:39;8.07;;;2.90;;
77938;SDS011;67136;47.546;21.630;2023-06-01T06:02:46;13.50;;;3.12;;
77938;SDS011;67136;47.546;21.630;2023-06-01T06:05:49;4.93;;;2.67;;
77938;SDS011;67136;47.546;21.630;2023-06-01T06:08:52;8.65;;;2.60;;
77938;SDS011;67136;47.546;21.630;2023-06-01T06:11:54;9.50;;;2.90;;
77938;SDS011;67136;47.546;21.630;2023-06-01T06:14:57;4.43;;;2.60;;
77938;SDS011;67136;47.546;21.630;2023-06-01T06:18:00;8.98;;;2.80;;
77938;SDS011;67136;47.546;21.630;2023-06-01T06:21:02;6.90;;;2.67;;
77938;SDS011;67136;47.546;21.630;2023-06-01T06:24:06;9.93;;;3.12;;
77938;SDS011;67136;47.546;21.630;2023-06-01T06:27:09;6.90;;;2.72;;
77938;SDS011;67136;47.546;21.630;2023-06-01T06:30:15;12.33;;;3.10;;
77938;SDS011;67136;47.546;21.630;2023-06-01T06:33:18;6.05;;;2.72;;
77938;SDS011;67136;47.546;21.630;2023-06-01T06:36:20;9.57;;;3.00;;
77938;SDS011;67136;47.546;21.630;2023-06-01T06:39:23;10.70;;;2.97;;
77938;SDS011;67136;47.546;21.630;2023-06-01T06:42:26;8.90;;;3.22;;
77938;SDS011;67136;47.546;21.630;2023-06-01T06:45:29;7.57;;;2.87;;
77938;SDS011;67136;47.546;21.630;2023-06-01T06:48:32;6.93;;;2.92;;
77938;SDS011;67136;47.546;21.630;2023-06-01T06:51:34;8.93;;;3.33;;
77938;SDS011;67136;47.546;21.630;2023-06-01T06:54:39;7.95;;;2.97;;
77938;SDS011;67136;47.546;21.630;2023-06-01T06:57:42;10.35;;;2.80;;
77938;SDS011;67136;47.546;21.630;2023-06-01T07:00:45;9.63;;;4.40;;
77938;SDS011;67136;47.546;21.630;2023-06-01T07:03:47;8.13;;;3.22;;
77938;SDS011;67136;47.546;21.630;2023-06-01T07:06:50;9.57;;;3.55;;
77938;SDS011;67136;47.546;21.630;2023-06-01T07:09:55;6.78;;;3.30;;
77938;SDS011;67136;47.546;21.630;2023-06-01T07:12:59;9.40;;;3.15;;
77938;SDS011;67136;47.546;21.630;2023-06-01T07:16:04;7.07;;;2.63;;
77938;SDS011;67136;47.546;21.630;2023-06-01T07:19:07;10.40;;;3.50;;
77938;SDS011;67136;47.546;21.630;2023-06-01T07:22:13;8.43;;;3.30;;
77938;SDS011;67136;47.546;21.630;2023-06-01T07:25:16;8.02;;;3.47;;
77938;SDS011;67136;47.546;21.630;2023-06-01T07:28:19;7.70;;;3.40;;
77938;SDS011;67136;47.546;21.630;2023-06-01T07:31:22;12.50;;;4.10;;
77938;SDS011;67136;47.546;21.630;2023-06-01T07:34:25;10.30;;;3.55;;
77938;SDS011;67136;47.546;21.630;2023-06-01T07:37:29;7.55;;;3.28;;
77938;SDS011;67136;47.546;21.630;2023-06-01T07:40:36;7.85;;;3.33;;
77938;SDS011;67136;47.546;21.630;2023-06-01T07:43:43;12.07;;;3.30;;
77938;SDS011;67136;47.546;21.630;2023-06-01T07:46:46;12.27;;;3.20;;
77938;SDS011;67136;47.546;21.630;2023-06-01T07:49:49;9.45;;;3.30;;
77938;SDS011;67136;47.546;21.630;2023-06-01T07:52:51;9.63;;;4.07;;
77938;SDS011;67136;47.546;21.630;2023-06-01T07:55:54;8.95;;;3.47;;
77938;SDS011;67136;47.546;21.630;2023-06-01T07:58:57;7.62;;;3.30;;
77938;SDS011;67136;47.546;21.630;2023-06-01T08:02:00;6.87;;;2.70;;
77938;SDS011;67136;47.546;21.630;2023-06-01T08:05:03;7.68;;;3.80;;
77938;SDS011;67136;47.546;21.630;2023-06-01T08:12:36;6.12;;;3.15;;
77938;SDS011;67136;47.546;21.630;2023-06-01T08:16:21;7.97;;;3.60;;
77938;SDS011;67136;47.546;21.630;2023-06-01T08:20:27;7.67;;;3.47;;
77938;SDS011;67136;47.546;21.630;2023-06-01T08:23:31;6.65;;;3.22;;
77938;SDS011;67136;47.546;21.630;2023-06-01T08:26:33;7.32;;;3.08;;
77938;SDS011;67136;47.546;21.630;2023-06-01T08:29:38;11.45;;;3.70;;
77938;SDS011;67136;47.546;21.630;2023-06-01T08:32:44;9.80;;;3.10;;
77938;SDS011;67136;47.546;21.630;2023-06-01T08:35:47;8.17;;;3.10;;
77938;SDS011;67136;47.546;21.630;2023-06-01T08:38:50;9.15;;;3.30;;
77938;SDS011;67136;47.546;21.630;2023-06-01T08:45:15;4.78;;;3.45;;
77938;SDS011;67136;47.546;21.630;2023-06-01T08:48:19;6.12;;;3.00;;
77938;SDS011;67136;47.546;21.630;2023-06-01T08:51:26;6.57;;;3.47;;
77938;SDS011;67136;47.546;21.630;2023-06-01T08:54:29;7.40;;;2.67;;
77938;SDS011;67136;47.546;21.630;2023-06-01T08:57:33;8.70;;;3.30;;
77938;SDS011;67136;47.546;21.630;2023-06-01T09:00:36;13.20;;;3.60;;
77938;SDS011;67136;47.546;21.630;2023-06-01T09:03:39;5.93;;;2.87;;
77938;SDS011;67136;47.546;21.630;2023-06-01T09:06:42;6.73;;;3.57;;
77938;SDS011;67136;47.546;21.630;2023-06-01T09:09:49;8.43;;;3.10;;
77938;SDS011;67136;47.546;21.630;2023-06-01T09:13:49;8.98;;;3.90;;
77938;SDS011;67136;47.546;21.630;2023-06-01T09:16:54;8.25;;;3.20;;
77938;SDS011;67136;47.546;21.630;2023-06-01T09:20:02;5.80;;;3.33;;
77938;SDS011;67136;47.546;21.630;2023-06-01T09:23:07;6.10;;;2.83;;
77938;SDS011;67136;47.546;21.630;2023-06-01T09:26:11;7.55;;;3.70;;
77938;SDS011;67136;47.546;21.630;2023-06-01T09:29:14;4.47;;;3.10;;
77938;SDS011;67136;47.546;21.630;2023-06-01T09:32:18;5.30;;;3.25;;
77938;SDS011;67136;47.546;21.630;2023-06-01T09:35:42;5.25;;;3.08;;
77938;SDS011;67136;47.546;21.630;2023-06-01T09:38:46;5.63;;;2.90;;
77938;SDS011;67136;47.546;21.630;2023-06-01T09:41:55;6.78;;;3.17;;
77938;SDS011;67136;47.546;21.630;2023-06-01T09:45:14;7.87;;;2.97;;
77938;SDS011;67136;47.546;21.630;2023-06-01T09:48:20;6.53;;;2.97;;
77938;SDS011;67136;47.546;21.630;2023-06-01T09:51:25;7.97;;;3.37;;
77938;SDS011;67136;47.546;21.630;2023-06-01T09:57:36;5.10;;;2.90;;
77938;SDS011;67136;47.546;21.630;2023-06-01T10:00:39;8.40;;;3.33;;
77938;SDS011;67136;47.546;21.630;2023-06-01T10:03:43;4.45;;;2.97;;
77938;SDS011;67136;47.546;21.630;2023-06-01T10:06:46;7.47;;;3.40;;
77938;SDS011;67136;47.546;21.630;2023-06-01T10:09:50;7.20;;;3.00;;
77938;SDS011;67136;47.546;21.630;2023-06-01T10:12:57;10.43;;;3.35;;
77938;SDS011;67136;47.546;21.630;2023-06-01T10:16:00;8.70;;;3.22;;
77938;SDS011;67136;47.546;21.630;2023-06-01T10:19:03;5.35;;;3.58;;
77938;SDS011;67136;47.546;21.630;2023-06-01T10:22:08;10.05;;;3.20;;
77938;SDS011;67136;47.546;21.630;2023-06-01T10:25:14;4.87;;;3.30;;
77938;SDS011;67136;47.546;21.630;2023-06-01T10:28:20;7.95;;;3.60;;
77938;SDS011;67136;47.546;21.630;2023-06-01T10:31:33;6.57;;;3.15;;
77938;SDS011;67136;47.546;21.630;2023-06-01T10:34:41;6.43;;;3.00;;
77938;SDS011;67136;47.546;21.630;2023-06-01T10:38:21;7.97;;;3.17;;
77938;SDS011;67136;47.546;21.630;2023-06-01T10:41:24;12.70;;;3.70;;
77938;SDS011;67136;47.546;21.630;2023-06-01T10:50:48;10.35;;;3.33;;
77938;SDS011;67136;47.546;21.630;2023-06-01T10:54:25;7.20;;;3.70;;
77938;SDS011;67136;47.546;21.630;2023-06-01T10:57:30;12.07;;;4.27;;
77938;SDS011;67136;47.546;21.630;2023-06-01T11:00:38;9.77;;;3.70;;
77938;SDS011;67136;47.546;21.630;2023-06-01T11:03:42;7.70;;;3.40;;
77938;SDS011;67136;47.546;21.630;2023-06-01T11:06:48;6.28;;;3.30;;
77938;SDS011;67136;47.546;21.630;2023-06-01T11:09:50;8.23;;;3.50;;
77938;SDS011;67136;47.546;21.630;2023-06-01T11:13:12;5.97;;;3.37;;
77938;SDS011;67136;47.546;21.630;2023-06-01T11:16:27;8.18;;;2.95;;
77938;SDS011;67136;47.546;21.630;2023-06-01T11:19:30;8.30;;;3.45;;
77938;SDS011;67136;47.546;21.630;2023-06-01T11:22:37;4.72;;;3.20;;
77938;SDS011;67136;47.546;21.630;2023-06-01T11:25:41;5.35;;;2.90;;
77938;SDS011;67136;47.546;21.630;2023-06-01T11:28:45;8.17;;;3.23;;
77938;SDS011;67136;47.546;21.630;2023-06-01T11:34:52;5.43;;;3.08;;
77938;SDS011;67136;47.546;21.630;2023-06-01T11:37:56;8.10;;;3.17;;
77938;SDS011;67136;47.546;21.630;2023-06-01T11:40:59;8.93;;;3.28;;
77938;SDS011;67136;47.546;21.630;2023-06-01T11:44:03;9.10;;;3.03;;
77938;SDS011;67136;47.546;21.630;2023-06-01T11:47:06;10.48;;;3.10;;
77938;SDS011;67136;47.546;21.630;2023-06-01T11:50:21;13.95;;;2.85;;
77938;SDS011;67136;47.546;21.630;2023-06-01T11:53:29;5.68;;;2.70;;
77938;SDS011;67136;47.546;21.630;2023-06-01T11:56:36;8.45;;;2.70;;
77938;SDS011;67136;47.546;21.630;2023-06-01T11:59:45;7.77;;;2.83;;
77938;SDS011;67136;47.546;21.630;2023-06-01T12:02:49;11.63;;;2.90;;
77938;SDS011;67136;47.546;21.630;2023-06-01T12:06:07;8.45;;;3.05;;
77938;SDS011;67136;47.546;21.630;2023-06-01T12:09:12;8.98;;;2.70;;
77938;SDS011;67136;47.546;21.630;2023-06-01T12:12:21;10.32;;;3.05;;
77938;SDS011;67136;47.546;21.630;2023-06-01T12:15:26;24.70;;;3.80;;
77938;SDS011;67136;47.546;21.630;2023-06-01T12:18:29;6.75;;;3.00;;
77938;SDS011;67136;47.546;21.630;2023-06-01T12:21:35;7.95;;;3.28;;
77938;SDS011;67136;47.546;21.630;2023-06-01T12:24:38;8.10;;;2.53;;
77938;SDS011;67136;47.546;21.630;2023-06-01T12:27:41;10.45;;;3.12;;
77938;SDS011;67136;47.546;21.630;2023-06-01T12:30:44;9.77;;;2.53;;
77938;SDS011;67136;47.546;21.630;2023-06-01T12:33:48;6.62;;;2.58;;
77938;SDS011;67136;47.546;21.630;2023-06-01T12:36:53;4.68;;;2.35;;
77938;SDS011;67136;47.546;21.630;2023-06-01T12:39:56;3.92;;;2.12;;
77938;SDS011;67136;47.546;21.630;2023-06-01T12:42:59;10.18;;;2.37;;
77938;SDS011;67136;47.546;21.630;2023-06-01T12:46:02;6.07;;;2.33;;
77938;SDS011;67136;47.546;21.630;2023-06-01T12:52:15;6.87;;;2.45;;
77938;SDS011;67136;47.546;21.630;2023-06-01T12:55:18;6.40;;;2.50;;
77938;SDS011;67136;47.546;21.630;2023-06-01T12:58:21;6.50;;;2.47;;
77938;SDS011;67136;47.546;21.630;2023-06-01T13:01:24;7.07;;;2.40;;
77938;SDS011;67136;47.546;21.630;2023-06-01T13:04:27;6.62;;;2.80;;
77938;SDS011;67136;47.546;21.630;2023-06-01T13:07:31;10.05;;;2.72;;
77938;SDS011;67136;47.546;21.630;2023-06-01T13:10:34;7.30;;;2.45;;
77938;SDS011;67136;47.546;21.630;2023-06-01T13:13:37;5.62;;;2.45;;
77938;SDS011;67136;47.546;21.630;2023-06-01T13:16:44;4.57;;;2.60;;
77938;SDS011;67136;47.546;21.630;2023-06-01T13:19:47;8.73;;;2.42;;
77938;SDS011;67136;47.546;21.630;2023-06-01T13:22:51;5.68;;;2.53;;
77938;SDS011;67136;47.546;21.630;2023-06-01T13:25:54;5.82;;;2.30;;
77938;SDS011;67136;47.546;21.630;2023-06-01T13:28:57;6.00;;;2.30;;
77938;SDS011;67136;47.546;21.630;2023-06-01T13:32:00;11.00;;;2.53;;
77938;SDS011;67136;47.546;21.630;2023-06-01T13:35:03;5.87;;;1.95;;
77938;SDS011;67136;47.546;21.630;2023-06-01T13:38:06;7.18;;;2.20;;
77938;SDS011;67136;47.546;21.630;2023-06-01T13:41:09;7.62;;;2.50;;
77938;SDS011;67136;47.546;21.630;2023-06-01T13:44:13;5.53;;;2.58;;
77938;SDS011;67136;47.546;21.630;2023-06-01T13:47:15;4.90;;;2.20;;
77938;SDS011;67136;47.546;21.630;2023-06-01T13:50:18;7.72;;;2.40;;
77938;SDS011;67136;47.546;21.630;2023-06-01T13:53:21;7.70;;;2.28;;
77938;SDS011;67136;47.546;21.630;2023-06-01T13:56:24;7.00;;;2.47;;
77938;SDS011;67136;47.546;21.630;2023-06-01T13:59:27;9.20;;;2.85;;
77938;SDS011;67136;47.546;21.630;2023-06-01T14:02:30;12.97;;;2.30;;
77938;SDS011;67136;47.546;21.630;2023-06-01T14:05:33;11.23;;;2.12;;
77938;SDS011;67136;47.546;21.630;2023-06-01T14:08:54;9.18;;;1.90;;
77938;SDS011;67136;47.546;21.630;2023-06-01T14:11:57;9.20;;;2.30;;
77938;SDS011;67136;47.546;21.630;2023-06-01T14:15:00;3.40;;;1.87;;
77938;SDS011;67136;47.546;21.630;2023-06-01T14:18:02;4.83;;;2.20;;
77938;SDS011;67136;47.546;21.630;2023-06-01T14:21:05;3.50;;;2.10;;
77938;SDS011;67136;47.546;21.630;2023-06-01T14:24:08;5.22;;;2.10;;
77938;SDS011;67136;47.546;21.630;2023-06-01T14:27:11;12.37;;;2.60;;
77938;SDS011;67136;47.546;21.630;2023-06-01T14:30:13;4.18;;;1.80;;
77938;SDS011;67136;47.546;21.630;2023-06-01T14:33:16;10.13;;;2.13;;
77938;SDS011;67136;47.546;21.630;2023-06-01T14:36:19;7.22;;;2.42;;
77938;SDS011;67136;47.546;21.630;2023-06-01T14:39:25;4.10;;;1.90;;
77938;SDS011;67136;47.546;21.630;2023-06-01T14:42:28;8.63;;;2.42;;
77938;SDS011;67136;47.546;21.630;2023-06-01T14:45:30;5.10;;;2.08;;
77938;SDS011;67136;47.546;21.630;2023-06-01T14:48:34;4.80;;;1.90;;
77938;SDS011;67136;47.546;21.630;2023-06-01T14:51:36;5.62;;;2.03;;
77938;SDS011;67136;47.546;21.630;2023-06-01T14:54:39;4.75;;;1.92;;
77938;SDS011;67136;47.546;21.630;2023-06-01T14:57:43;5.22;;;2.00;;
77938;SDS011;67136;47.546;21.630;2023-06-01T15:00:46;6.68;;;2.33;;
77938;SDS011;67136;47.546;21.630;2023-06-01T15:03:50;3.40;;;1.90;;
77938;SDS011;67136;47.546;21.630;2023-06-01T15:06:53;5.35;;;1.80;;
77938;SDS011;67136;47.546;21.630;2023-06-01T15:09:56;6.30;;;2.10;;
77938;SDS011;67136;47.546;21.630;2023-06-01T15:12:59;3.87;;;1.95;;
77938;SDS011;67136;47.546;21.630;2023-06-01T15:16:02;4.05;;;2.12;;
77938;SDS011;67136;47.546;21.630;2023-06-01T15:19:05;6.83;;;1.83;;
77938;SDS011;67136;47.546;21.630;2023-06-01T15:22:08;8.43;;;1.90;;
77938;SDS011;67136;47.546;21.630;2023-06-01T15:25:11;5.07;;;2.05;;
77938;SDS011;67136;47.546;21.630;2023-06-01T15:28:13;3.97;;;1.90;;
77938;SDS011;67136;47.546;21.630;2023-06-01T15:31:16;4.10;;;1.92;;
77938;SDS011;67136;47.546;21.630;2023-06-01T15:34:19;3.20;;;1.83;;
77938;SDS011;67136;47.546;21.630;2023-06-01T15:37:22;3.37;;;1.70;;
77938;SDS011;67136;47.546;21.630;2023-06-01T15:40:25;4.57;;;2.15;;
77938;SDS011;67136;47.546;21.630;2023-06-01T15:43:28;3.87;;;2.20;;
77938;SDS011;67136;47.546;21.630;2023-06-01T15:46:31;5.20;;;2.20;;
77938;SDS011;67136;47.546;21.630;2023-06-01T15:49:34;4.17;;;2.50;;
77938;SDS011;67136;47.546;21.630;2023-06-01T15:52:37;3.72;;;2.20;;
77938;SDS011;67136;47.546;21.630;2023-06-01T15:55:39;5.87;;;2.50;;
77938;SDS011;67136;47.546;21.630;2023-06-01T15:58:42;5.75;;;2.05;;
77938;SDS011;67136;47.546;21.630;2023-06-01T16:01:45;4.32;;;2.20;;
77938;SDS011;67136;47.546;21.630;2023-06-01T16:04:48;8.90;;;2.20;;
77938;SDS011;67136;47.546;21.630;2023-06-01T16:07:50;5.18;;;1.80;;
77938;SDS011;67136;47.546;21.630;2023-06-01T16:10:54;4.72;;;2.22;;
77938;SDS011;67136;47.546;21.630;2023-06-01T16:13:56;7.30;;;1.90;;
77938;SDS011;67136;47.546;21.630;2023-06-01T16:16:59;4.20;;;2.10;;
77938;SDS011;67136;47.546;21.630;2023-06-01T16:20:05;5.10;;;2.07;;
77938;SDS011;67136;47.546;21.630;2023-06-01T16:23:09;3.97;;;2.20;;
77938;SDS011;67136;47.546;21.630;2023-06-01T16:26:12;10.20;;;2.20;;
77938;SDS011;67136;47.546;21.630;2023-06-01T16:29:15;4.25;;;1.90;;
77938;SDS011;67136;47.546;21.630;2023-06-01T16:32:17;5.57;;;2.40;;
77938;SDS011;67136;47.546;21.630;2023-06-01T16:35:20;10.43;;;2.50;;
77938;SDS011;67136;47.546;21.630;2023-06-01T16:38:23;5.90;;;2.17;;
77938;SDS011;67136;47.546;21.630;2023-06-01T16:41:25;9.93;;;2.10;;
77938;SDS011;67136;47.546;21.630;2023-06-01T16:44:29;6.90;;;2.30;;
77938;SDS011;67136;47.546;21.630;2023-06-01T16:47:32;3.92;;;2.10;;
77938;SDS011;67136;47.546;21.630;2023-06-01T16:50:34;6.57;;;2.20;;
77938;SDS011;67136;47.546;21.630;2023-06-01T16:53:37;7.65;;;2.17;;
77938;SDS011;67136;47.546;21.630;2023-06-01T16:56:39;8.68;;;2.45;;
77938;SDS011;67136;47.546;21.630;2023-06-01T16:59:42;17.48;;;2.60;;
77938;SDS011;67136;47.546;21.630;2023-06-01T17:02:45;5.43;;;2.53;;
77938;SDS011;67136;47.546;21.630;2023-06-01T17:05:48;9.53;;;2.37;;
77938;SDS011;67136;47.546;21.630;2023-06-01T17:08:50;9.10;;;2.72;;
77938;SDS011;67136;47.546;21.630;2023-06-01T17:11:53;6.72;;;2.10;;
77938;SDS011;67136;47.546;21.630;2023-06-01T17:14:56;5.65;;;2.60;;
77938;SDS011;67136;47.546;21.630;2023-06-01T17:17:58;3.95;;;2.05;;
77938;SDS011;67136;47.546;21.630;2023-06-01T17:21:01;5.77;;;2.07;;
77938;SDS011;67136;47.546;21.630;2023-06-01T17:24:05;10.27;;;2.40;;
77938;SDS011;67136;47.546;21.630;2023-06-01T17:27:07;6.00;;;2.50;;
77938;SDS011;67136;47.546;21.630;2023-06-01T17:30:11;7.72;;;2.40;;
77938;SDS011;67136;47.546;21.630;2023-06-01T17:33:15;3.58;;;2.30;;
77938;SDS011;67136;47.546;21.630;2023-06-01T17:36:17;7.03;;;2.40;;
77938;SDS011;67136;47.546;21.630;2023-06-01T17:39:20;6.15;;;2.25;;
77938;SDS011;67136;47.546;21.630;2023-06-01T17:42:24;3.65;;;2.22;;
77938;SDS011;67136;47.546;21.630;2023-06-01T17:45:26;3.28;;;1.80;;
77938;SDS011;67136;47.546;21.630;2023-06-01T17:48:29;7.10;;;2.40;;
77938;SDS011;67136;47.546;21.630;2023-06-01T17:51:32;4.23;;;2.37;;
77938;SDS011;67136;47.546;21.630;2023-06-01T17:54:34;5.57;;;2.42;;
77938;SDS011;67136;47.546;21.630;2023-06-01T17:57:37;5.12;;;2.50;;
77938;SDS011;67136;47.546;21.630;2023-06-01T18:00:40;6.95;;;2.50;;
77938;SDS011;67136;47.546;21.630;2023-06-01T18:03:42;8.95;;;2.80;;
77938;SDS011;67136;47.546;21.630;2023-06-01T18:06:44;5.13;;;2.20;;
77938;SDS011;67136;47.546;21.630;2023-06-01T18:09:49;8.82;;;2.42;;
77938;SDS011;67136;47.546;21.630;2023-06-01T18:12:51;9.65;;;2.85;;
77938;SDS011;67136;47.546;21.630;2023-06-01T18:15:54;6.95;;;2.47;;
77938;SDS011;67136;47.546;21.630;2023-06-01T18:18:57;8.82;;;2.70;;
77938;SDS011;67136;47.546;21.630;2023-06-01T18:22:00;6.20;;;2.70;;
77938;SDS011;67136;47.546;21.630;2023-06-01T18:25:03;6.37;;;2.72;;
77938;SDS011;67136;47.546;21.630;2023-06-01T18:28:06;5.10;;;2.87;;
77938;SDS011;67136;47.546;21.630;2023-06-01T18:31:09;7.05;;;2.72;;
77938;SDS011;67136;47.546;21.630;2023-06-01T18:34:12;8.75;;;2.92;;
77938;SDS011;67136;47.546;21.630;2023-06-01T18:37:14;5.80;;;2.70;;
77938;SDS011;67136;47.546;21.630;2023-06-01T18:40:17;8.55;;;2.80;;
77938;SDS011;67136;47.546;21.630;2023-06-01T18:43:21;7.62;;;2.90;;
77938;SDS011;67136;47.546;21.630;2023-06-01T18:46:23;6.55;;;3.25;;
77938;SDS011;67136;47.546;21.630;2023-06-01T18:49:27;7.80;;;2.40;;
77938;SDS011;67136;47.546;21.630;2023-06-01T18:52:30;8.13;;;2.60;;